sensor_id;sensor_type;location;lat;lon;timestamp;P1;durP1;ratioP1;P2;durP2;ratioP2
21424;SDS011;10873;51.132;16.848;2023-06-22T00:01:12;7.43;;;6.68;;
21424;SDS011;10873;51.132;16.848;2023-06-22T00:03:38;8.05;;;7.25;;
21424;SDS011;10873;51.132;16.848;2023-06-22T00:06:04;7.65;;;6.82;;
21424;SDS011;10873;51.132;16.848;2023-06-22T00:08:30;8.35;;;7.53;;
21424;SDS011;10873;51.132;16.848;2023-06-22T00:10:56;7.30;;;6.60;;
21424;SDS011;10873;51.132;16.848;2023-06-22T00:13:22;9.40;;;6.90;;
21424;SDS011;10873;51.132;16.848;2023-06-22T00:15:48;8.07;;;7.28;;
21424;SDS011;10873;51.132;16.848;2023-06-22T00:18:15;7.53;;;6.82;;
21424;SDS011;10873;51.132;16.848;2023-06-22T00:20:41;7.35;;;6.55;;
21424;SDS011;10873;51.132;16.848;2023-06-22T00:23:08;9.43;;;6.78;;
21424;SDS011;10873;51.132;16.848;2023-06-22T00:25:34;7.55;;;6.85;;
21424;SDS011;10873;51.132;16.848;2023-06-22T00:28:00;7.57;;;6.60;;
21424;SDS011;10873;51.132;16.848;2023-06-22T00:30:26;7.93;;;6.97;;
21424;SDS011;10873;51.132;16.848;2023-06-22T00:32:52;8.20;;;7.35;;
21424;SDS011;10873;51.132;16.848;2023-06-22T00:35:20;7.80;;;7.10;;
21424;SDS011;10873;51.132;16.848;2023-06-22T00:37:46;7.38;;;6.68;;
21424;SDS011;10873;51.132;16.848;2023-06-22T00:40:12;7.80;;;7.10;;
21424;SDS011;10873;51.132;16.848;2023-06-22T00:42:39;7.82;;;7.03;;
21424;SDS011;10873;51.132;16.848;2023-06-22T00:45:06;7.43;;;6.68;;
21424;SDS011;10873;51.132;16.848;2023-06-22T00:47:33;7.72;;;7.03;;
21424;SDS011;10873;51.132;16.848;2023-06-22T00:50:01;7.70;;;7.00;;
21424;SDS011;10873;51.132;16.848;2023-06-22T00:52:30;7.88;;;7.10;;
21424;SDS011;10873;51.132;16.848;2023-06-22T00:54:59;8.20;;;7.40;;
21424;SDS011;10873;51.132;16.848;2023-06-22T00:57:26;7.68;;;6.97;;
21424;SDS011;10873;51.132;16.848;2023-06-22T00:59:53;8.43;;;7.47;;
21424;SDS011;10873;51.132;16.848;2023-06-22T01:02:19;8.07;;;7.28;;
21424;SDS011;10873;51.132;16.848;2023-06-22T01:04:46;9.07;;;7.53;;
21424;SDS011;10873;51.132;16.848;2023-06-22T01:07:13;8.32;;;7.53;;
21424;SDS011;10873;51.132;16.848;2023-06-22T01:09:51;8.88;;;7.57;;
21424;SDS011;10873;51.132;16.848;2023-06-22T01:12:22;9.73;;;7.22;;
21424;SDS011;10873;51.132;16.848;2023-06-22T01:14:50;8.45;;;7.65;;
21424;SDS011;10873;51.132;16.848;2023-06-22T01:17:23;7.35;;;6.70;;
21424;SDS011;10873;51.132;16.848;2023-06-22T01:19:54;7.60;;;6.88;;
21424;SDS011;10873;51.132;16.848;2023-06-22T01:22:21;11.18;;;7.80;;
21424;SDS011;10873;51.132;16.848;2023-06-22T01:24:55;8.57;;;7.35;;
21424;SDS011;10873;51.132;16.848;2023-06-22T01:27:36;8.27;;;7.10;;
21424;SDS011;10873;51.132;16.848;2023-06-22T01:30:14;7.90;;;7.10;;
21424;SDS011;10873;51.132;16.848;2023-06-22T01:32:41;8.70;;;7.90;;
21424;SDS011;10873;51.132;16.848;2023-06-22T01:35:09;7.82;;;7.07;;
21424;SDS011;10873;51.132;16.848;2023-06-22T01:37:37;8.82;;;8.02;;
21424;SDS011;10873;51.132;16.848;2023-06-22T01:40:04;8.75;;;7.50;;
21424;SDS011;10873;51.132;16.848;2023-06-22T01:42:32;7.20;;;6.57;;
21424;SDS011;10873;51.132;16.848;2023-06-22T01:44:59;8.15;;;7.32;;
21424;SDS011;10873;51.132;16.848;2023-06-22T01:47:28;7.85;;;7.15;;
21424;SDS011;10873;51.132;16.848;2023-06-22T01:49:54;7.70;;;6.78;;
21424;SDS011;10873;51.132;16.848;2023-06-22T01:52:21;7.65;;;6.95;;
21424;SDS011;10873;51.132;16.848;2023-06-22T01:54:47;7.82;;;7.07;;
21424;SDS011;10873;51.132;16.848;2023-06-22T01:57:14;7.82;;;7.13;;
21424;SDS011;10873;51.132;16.848;2023-06-22T01:59:43;8.45;;;7.13;;
21424;SDS011;10873;51.132;16.848;2023-06-22T02:02:15;8.02;;;7.22;;
21424;SDS011;10873;51.132;16.848;2023-06-22T02:04:47;7.57;;;6.88;;
21424;SDS011;10873;51.132;16.848;2023-06-22T02:07:20;7.97;;;7.22;;
21424;SDS011;10873;51.132;16.848;2023-06-22T02:09:49;7.68;;;6.88;;
21424;SDS011;10873;51.132;16.848;2023-06-22T02:12:18;7.55;;;6.85;;
21424;SDS011;10873;51.132;16.848;2023-06-22T02:14:48;7.88;;;7.18;;
21424;SDS011;10873;51.132;16.848;2023-06-22T02:17:17;7.70;;;6.90;;
21424;SDS011;10873;51.132;16.848;2023-06-22T02:19:43;8.00;;;7.20;;
21424;SDS011;10873;51.132;16.848;2023-06-22T02:22:11;7.63;;;6.93;;
21424;SDS011;10873;51.132;16.848;2023-06-22T02:24:39;8.15;;;7.35;;
21424;SDS011;10873;51.132;16.848;2023-06-22T02:27:05;7.43;;;6.72;;
21424;SDS011;10873;51.132;16.848;2023-06-22T02:29:32;7.93;;;7.07;;
21424;SDS011;10873;51.132;16.848;2023-06-22T02:31:58;8.00;;;7.20;;
21424;SDS011;10873;51.132;16.848;2023-06-22T02:34:25;7.47;;;6.75;;
21424;SDS011;10873;51.132;16.848;2023-06-22T02:36:51;7.75;;;6.95;;
21424;SDS011;10873;51.132;16.848;2023-06-22T02:39:20;7.47;;;6.80;;
21424;SDS011;10873;51.132;16.848;2023-06-22T02:41:47;7.57;;;6.85;;
21424;SDS011;10873;51.132;16.848;2023-06-22T02:44:14;7.57;;;6.63;;
21424;SDS011;10873;51.132;16.848;2023-06-22T02:46:40;8.55;;;7.65;;
21424;SDS011;10873;51.132;16.848;2023-06-22T02:49:06;7.82;;;7.13;;
21424;SDS011;10873;51.132;16.848;2023-06-22T02:51:32;8.48;;;7.28;;
21424;SDS011;10873;51.132;16.848;2023-06-22T02:53:59;7.95;;;7.25;;
21424;SDS011;10873;51.132;16.848;2023-06-22T02:56:28;7.65;;;6.95;;
21424;SDS011;10873;51.132;16.848;2023-06-22T02:58:55;7.88;;;7.18;;
21424;SDS011;10873;51.132;16.848;2023-06-22T03:01:26;8.00;;;7.20;;
21424;SDS011;10873;51.132;16.848;2023-06-22T03:03:53;7.97;;;7.22;;
21424;SDS011;10873;51.132;16.848;2023-06-22T03:06:19;7.40;;;6.75;;
21424;SDS011;10873;51.132;16.848;2023-06-22T03:08:49;8.00;;;7.30;;
21424;SDS011;10873;51.132;16.848;2023-06-22T03:11:15;7.45;;;6.65;;
21424;SDS011;10873;51.132;16.848;2023-06-22T03:13:43;7.70;;;7.00;;
21424;SDS011;10873;51.132;16.848;2023-06-22T03:16:10;7.65;;;6.95;;
21424;SDS011;10873;51.132;16.848;2023-06-22T03:18:36;7.85;;;7.05;;
21424;SDS011;10873;51.132;16.848;2023-06-22T03:21:02;7.55;;;6.85;;
21424;SDS011;10873;51.132;16.848;2023-06-22T03:23:28;8.00;;;7.20;;
21424;SDS011;10873;51.132;16.848;2023-06-22T03:25:54;7.35;;;6.60;;
21424;SDS011;10873;51.132;16.848;2023-06-22T03:28:23;7.70;;;7.00;;
21424;SDS011;10873;51.132;16.848;2023-06-22T03:30:50;7.43;;;6.82;;
21424;SDS011;10873;51.132;16.848;2023-06-22T03:33:16;8.05;;;7.30;;
21424;SDS011;10873;51.132;16.848;2023-06-22T03:35:42;7.35;;;6.65;;
21424;SDS011;10873;51.132;16.848;2023-06-22T03:38:09;8.02;;;7.22;;
21424;SDS011;10873;51.132;16.848;2023-06-22T03:40:34;7.40;;;6.75;;
21424;SDS011;10873;51.132;16.848;2023-06-22T03:43:01;7.63;;;6.93;;
21424;SDS011;10873;51.132;16.848;2023-06-22T03:45:26;8.07;;;7.28;;
21424;SDS011;10873;51.132;16.848;2023-06-22T03:47:54;7.40;;;6.70;;
21424;SDS011;10873;51.132;16.848;2023-06-22T03:50:20;7.50;;;6.80;;
21424;SDS011;10873;51.132;16.848;2023-06-22T03:52:46;7.80;;;7.00;;
21424;SDS011;10873;51.132;16.848;2023-06-22T03:55:12;7.80;;;7.00;;
21424;SDS011;10873;51.132;16.848;2023-06-22T03:57:38;11.68;;;7.07;;
21424;SDS011;10873;51.132;16.848;2023-06-22T04:00:04;15.30;;;7.18;;
21424;SDS011;10873;51.132;16.848;2023-06-22T04:02:31;13.65;;;7.88;;
21424;SDS011;10873;51.132;16.848;2023-06-22T04:04:59;24.52;;;10.23;;
21424;SDS011;10873;51.132;16.848;2023-06-22T04:07:25;23.15;;;10.55;;
21424;SDS011;10873;51.132;16.848;2023-06-22T04:09:51;20.80;;;10.00;;
21424;SDS011;10873;51.132;16.848;2023-06-22T04:12:17;24.70;;;10.15;;
21424;SDS011;10873;51.132;16.848;2023-06-22T04:14:43;17.80;;;9.70;;
21424;SDS011;10873;51.132;16.848;2023-06-22T04:17:09;13.73;;;9.05;;
21424;SDS011;10873;51.132;16.848;2023-06-22T04:19:35;14.13;;;8.85;;
21424;SDS011;10873;51.132;16.848;2023-06-22T04:22:02;14.07;;;8.93;;
21424;SDS011;10873;51.132;16.848;2023-06-22T04:24:28;10.18;;;9.15;;
21424;SDS011;10873;51.132;16.848;2023-06-22T04:26:55;11.32;;;8.57;;
21424;SDS011;10873;51.132;16.848;2023-06-22T04:29:21;10.00;;;9.00;;
21424;SDS011;10873;51.132;16.848;2023-06-22T04:31:54;12.13;;;9.18;;
21424;SDS011;10873;51.132;16.848;2023-06-22T04:34:21;10.10;;;9.10;;
21424;SDS011;10873;51.132;16.848;2023-06-22T04:36:47;14.32;;;9.60;;
21424;SDS011;10873;51.132;16.848;2023-06-22T04:39:14;10.82;;;9.73;;
21424;SDS011;10873;51.132;16.848;2023-06-22T04:41:40;10.18;;;9.18;;
21424;SDS011;10873;51.132;16.848;2023-06-22T04:44:09;10.93;;;9.63;;
21424;SDS011;10873;51.132;16.848;2023-06-22T04:46:35;10.10;;;9.05;;
21424;SDS011;10873;51.132;16.848;2023-06-22T04:49:04;11.48;;;9.68;;
21424;SDS011;10873;51.132;16.848;2023-06-22T04:51:32;12.00;;;9.70;;
21424;SDS011;10873;51.132;16.848;2023-06-22T04:53:57;11.65;;;9.02;;
21424;SDS011;10873;51.132;16.848;2023-06-22T04:56:27;11.05;;;8.88;;
21424;SDS011;10873;51.132;16.848;2023-06-22T04:58:54;25.40;;;12.02;;
21424;SDS011;10873;51.132;16.848;2023-06-22T05:01:22;37.47;;;11.73;;
21424;SDS011;10873;51.132;16.848;2023-06-22T05:03:48;24.20;;;11.98;;
21424;SDS011;10873;51.132;16.848;2023-06-22T05:06:14;39.15;;;12.27;;
21424;SDS011;10873;51.132;16.848;2023-06-22T05:08:40;28.27;;;10.75;;
21424;SDS011;10873;51.132;16.848;2023-06-22T05:11:07;26.35;;;11.50;;
21424;SDS011;10873;51.132;16.848;2023-06-22T05:13:34;24.67;;;11.07;;
21424;SDS011;10873;51.132;16.848;2023-06-22T05:16:00;16.55;;;10.70;;
21424;SDS011;10873;51.132;16.848;2023-06-22T05:18:27;20.58;;;10.13;;
21424;SDS011;10873;51.132;16.848;2023-06-22T05:20:53;17.85;;;10.10;;
21424;SDS011;10873;51.132;16.848;2023-06-22T05:23:19;20.45;;;10.48;;
21424;SDS011;10873;51.132;16.848;2023-06-22T05:25:45;12.63;;;9.30;;
21424;SDS011;10873;51.132;16.848;2023-06-22T05:28:11;16.58;;;9.50;;
21424;SDS011;10873;51.132;16.848;2023-06-22T05:30:39;16.48;;;9.73;;
21424;SDS011;10873;51.132;16.848;2023-06-22T05:33:05;19.08;;;10.13;;
21424;SDS011;10873;51.132;16.848;2023-06-22T05:35:31;18.27;;;9.35;;
21424;SDS011;10873;51.132;16.848;2023-06-22T05:37:57;13.57;;;9.77;;
21424;SDS011;10873;51.132;16.848;2023-06-22T05:40:23;20.95;;;9.77;;
21424;SDS011;10873;51.132;16.848;2023-06-22T05:42:49;13.63;;;9.98;;
21424;SDS011;10873;51.132;16.848;2023-06-22T05:45:15;11.68;;;9.63;;
21424;SDS011;10873;51.132;16.848;2023-06-22T05:47:42;14.18;;;10.20;;
21424;SDS011;10873;51.132;16.848;2023-06-22T05:50:08;14.30;;;10.00;;
21424;SDS011;10873;51.132;16.848;2023-06-22T05:52:34;11.98;;;9.70;;
21424;SDS011;10873;51.132;16.848;2023-06-22T05:55:01;10.63;;;9.23;;
21424;SDS011;10873;51.132;16.848;2023-06-22T05:57:27;13.82;;;9.45;;
21424;SDS011;10873;51.132;16.848;2023-06-22T05:59:53;15.68;;;9.60;;
21424;SDS011;10873;51.132;16.848;2023-06-22T06:02:19;11.63;;;9.75;;
21424;SDS011;10873;51.132;16.848;2023-06-22T06:04:47;11.70;;;9.55;;
21424;SDS011;10873;51.132;16.848;2023-06-22T06:07:13;11.10;;;9.40;;
21424;SDS011;10873;51.132;16.848;2023-06-22T06:09:39;15.43;;;10.05;;
21424;SDS011;10873;51.132;16.848;2023-06-22T06:12:05;9.93;;;8.93;;
21424;SDS011;10873;51.132;16.848;2023-06-22T06:14:32;9.60;;;8.60;;
21424;SDS011;10873;51.132;16.848;2023-06-22T06:16:58;9.50;;;8.50;;
21424;SDS011;10873;51.132;16.848;2023-06-22T06:19:24;10.40;;;9.30;;
21424;SDS011;10873;51.132;16.848;2023-06-22T06:21:51;11.82;;;8.30;;
21424;SDS011;10873;51.132;16.848;2023-06-22T06:24:17;10.82;;;9.10;;
21424;SDS011;10873;51.132;16.848;2023-06-22T06:26:43;10.82;;;8.90;;
21424;SDS011;10873;51.132;16.848;2023-06-22T06:29:09;10.50;;;8.75;;
21424;SDS011;10873;51.132;16.848;2023-06-22T06:31:35;10.32;;;8.82;;
21424;SDS011;10873;51.132;16.848;2023-06-22T06:34:01;10.63;;;8.77;;
21424;SDS011;10873;51.132;16.848;2023-06-22T06:36:27;9.73;;;8.55;;
21424;SDS011;10873;51.132;16.848;2023-06-22T06:38:55;10.35;;;8.70;;
21424;SDS011;10873;51.132;16.848;2023-06-22T06:41:21;9.32;;;8.38;;
21424;SDS011;10873;51.132;16.848;2023-06-22T06:43:47;9.23;;;8.23;;
21424;SDS011;10873;51.132;16.848;2023-06-22T06:46:13;9.45;;;8.43;;
21424;SDS011;10873;51.132;16.848;2023-06-22T06:48:39;9.02;;;8.10;;
21424;SDS011;10873;51.132;16.848;2023-06-22T06:51:05;9.40;;;8.27;;
21424;SDS011;10873;51.132;16.848;2023-06-22T06:53:34;9.05;;;7.97;;
21424;SDS011;10873;51.132;16.848;2023-06-22T06:56:02;8.82;;;7.28;;
21424;SDS011;10873;51.132;16.848;2023-06-22T06:58:30;10.25;;;8.23;;
21424;SDS011;10873;51.132;16.848;2023-06-22T07:00:56;9.60;;;8.60;;
21424;SDS011;10873;51.132;16.848;2023-06-22T07:03:22;8.95;;;7.70;;
21424;SDS011;10873;51.132;16.848;2023-06-22T07:05:48;8.82;;;7.45;;
21424;SDS011;10873;51.132;16.848;2023-06-22T07:08:14;8.32;;;7.53;;
21424;SDS011;10873;51.132;16.848;2023-06-22T07:10:40;9.63;;;7.70;;
21424;SDS011;10873;51.132;16.848;2023-06-22T07:13:08;8.43;;;7.53;;
21424;SDS011;10873;51.132;16.848;2023-06-22T07:15:34;8.93;;;8.13;;
21424;SDS011;10873;51.132;16.848;2023-06-22T07:18:00;9.13;;;7.82;;
21424;SDS011;10873;51.132;16.848;2023-06-22T07:20:26;8.32;;;7.53;;
21424;SDS011;10873;51.132;16.848;2023-06-22T07:22:52;8.50;;;7.65;;
21424;SDS011;10873;51.132;16.848;2023-06-22T07:25:18;8.52;;;7.65;;
21424;SDS011;10873;51.132;16.848;2023-06-22T07:27:45;8.50;;;7.60;;
21424;SDS011;10873;51.132;16.848;2023-06-22T07:30:13;8.50;;;7.60;;
21424;SDS011;10873;51.132;16.848;2023-06-22T07:32:39;7.85;;;7.15;;
21424;SDS011;10873;51.132;16.848;2023-06-22T07:35:06;8.80;;;7.25;;
21424;SDS011;10873;51.132;16.848;2023-06-22T07:37:33;8.80;;;7.90;;
21424;SDS011;10873;51.132;16.848;2023-06-22T07:40:00;8.80;;;8.00;;
21424;SDS011;10873;51.132;16.848;2023-06-22T07:42:26;8.45;;;7.55;;
21424;SDS011;10873;51.132;16.848;2023-06-22T07:44:53;8.05;;;7.25;;
21424;SDS011;10873;51.132;16.848;2023-06-22T07:47:21;9.95;;;7.70;;
21424;SDS011;10873;51.132;16.848;2023-06-22T07:49:50;8.38;;;7.60;;
21424;SDS011;10873;51.132;16.848;2023-06-22T07:52:17;7.82;;;7.05;;
21424;SDS011;10873;51.132;16.848;2023-06-22T07:54:43;10.73;;;7.70;;
21424;SDS011;10873;51.132;16.848;2023-06-22T07:57:09;8.18;;;7.40;;
21424;SDS011;10873;51.132;16.848;2023-06-22T07:59:35;8.45;;;7.57;;
21424;SDS011;10873;51.132;16.848;2023-06-22T08:02:02;8.70;;;7.80;;
21424;SDS011;10873;51.132;16.848;2023-06-22T08:04:30;8.07;;;7.28;;
21424;SDS011;10873;51.132;16.848;2023-06-22T08:06:59;8.05;;;7.32;;
21424;SDS011;10873;51.132;16.848;2023-06-22T08:09:25;8.07;;;7.25;;
21424;SDS011;10873;51.132;16.848;2023-06-22T08:11:53;8.82;;;7.93;;
21424;SDS011;10873;51.132;16.848;2023-06-22T08:14:20;8.40;;;7.60;;
21424;SDS011;10873;51.132;16.848;2023-06-22T08:16:47;8.00;;;7.20;;
21424;SDS011;10873;51.132;16.848;2023-06-22T08:19:12;8.32;;;7.53;;
21424;SDS011;10873;51.132;16.848;2023-06-22T08:21:40;8.68;;;7.25;;
21424;SDS011;10873;51.132;16.848;2023-06-22T08:24:06;8.52;;;7.72;;
21424;SDS011;10873;51.132;16.848;2023-06-22T08:26:33;8.30;;;7.50;;
21424;SDS011;10873;51.132;16.848;2023-06-22T08:29:01;7.93;;;7.13;;
21424;SDS011;10873;51.132;16.848;2023-06-22T08:31:28;8.20;;;7.40;;
21424;SDS011;10873;51.132;16.848;2023-06-22T08:33:54;7.75;;;7.00;;
21424;SDS011;10873;51.132;16.848;2023-06-22T08:36:20;8.55;;;7.47;;
21424;SDS011;10873;51.132;16.848;2023-06-22T08:38:47;8.40;;;7.05;;
21424;SDS011;10873;51.132;16.848;2023-06-22T08:41:16;7.93;;;7.13;;
21424;SDS011;10873;51.132;16.848;2023-06-22T08:43:43;7.88;;;7.07;;
21424;SDS011;10873;51.132;16.848;2023-06-22T08:46:09;8.90;;;6.95;;
21424;SDS011;10873;51.132;16.848;2023-06-22T08:48:36;7.95;;;7.22;;
21424;SDS011;10873;51.132;16.848;2023-06-22T08:51:02;7.75;;;6.93;;
21424;SDS011;10873;51.132;16.848;2023-06-22T08:53:29;7.32;;;6.65;;
21424;SDS011;10873;51.132;16.848;2023-06-22T08:55:57;7.72;;;6.88;;
21424;SDS011;10873;51.132;16.848;2023-06-22T08:58:23;7.95;;;7.15;;
21424;SDS011;10873;51.132;16.848;2023-06-22T09:00:49;7.53;;;6.82;;
21424;SDS011;10873;51.132;16.848;2023-06-22T09:03:16;8.13;;;7.32;;
21424;SDS011;10873;51.132;16.848;2023-06-22T09:05:43;8.68;;;6.85;;
21424;SDS011;10873;51.132;16.848;2023-06-22T09:08:09;7.57;;;6.35;;
21424;SDS011;10873;51.132;16.848;2023-06-22T09:10:36;7.35;;;6.70;;
21424;SDS011;10873;51.132;16.848;2023-06-22T09:13:03;7.75;;;7.00;;
21424;SDS011;10873;51.132;16.848;2023-06-22T09:15:30;8.05;;;6.85;;
21424;SDS011;10873;51.132;16.848;2023-06-22T09:17:56;8.20;;;6.63;;
21424;SDS011;10873;51.132;16.848;2023-06-22T09:20:22;7.53;;;6.82;;
21424;SDS011;10873;51.132;16.848;2023-06-22T09:22:49;7.55;;;6.85;;
21424;SDS011;10873;51.132;16.848;2023-06-22T09:25:15;7.43;;;6.72;;
21424;SDS011;10873;51.132;16.848;2023-06-22T09:27:41;7.22;;;6.53;;
21424;SDS011;10873;51.132;16.848;2023-06-22T09:30:09;8.68;;;7.38;;
21424;SDS011;10873;51.132;16.848;2023-06-22T09:32:35;7.38;;;6.68;;
21424;SDS011;10873;51.132;16.848;2023-06-22T09:35:03;7.88;;;7.15;;
21424;SDS011;10873;51.132;16.848;2023-06-22T09:37:31;7.50;;;6.80;;
21424;SDS011;10873;51.132;16.848;2023-06-22T09:39:57;7.43;;;6.72;;
21424;SDS011;10873;51.132;16.848;2023-06-22T09:42:23;7.75;;;7.05;;
21424;SDS011;10873;51.132;16.848;2023-06-22T09:44:49;7.78;;;6.97;;
21424;SDS011;10873;51.132;16.848;2023-06-22T09:47:16;7.53;;;6.72;;
21424;SDS011;10873;51.132;16.848;2023-06-22T09:49:42;7.38;;;6.68;;
21424;SDS011;10873;51.132;16.848;2023-06-22T09:52:08;7.10;;;6.50;;
21424;SDS011;10873;51.132;16.848;2023-06-22T09:54:36;8.95;;;6.85;;
21424;SDS011;10873;51.132;16.848;2023-06-22T09:57:02;7.53;;;6.85;;
21424;SDS011;10873;51.132;16.848;2023-06-22T09:59:29;7.45;;;6.80;;
21424;SDS011;10873;51.132;16.848;2023-06-22T10:01:55;7.25;;;6.55;;
21424;SDS011;10873;51.132;16.848;2023-06-22T10:04:22;7.30;;;6.68;;
21424;SDS011;10873;51.132;16.848;2023-06-22T10:06:49;7.40;;;6.70;;
21424;SDS011;10873;51.132;16.848;2023-06-22T10:09:16;6.78;;;6.18;;
21424;SDS011;10873;51.132;16.848;2023-06-22T10:11:41;8.38;;;6.85;;
21424;SDS011;10873;51.132;16.848;2023-06-22T10:14:07;7.68;;;6.90;;
21424;SDS011;10873;51.132;16.848;2023-06-22T10:16:36;7.00;;;6.40;;
21424;SDS011;10873;51.132;16.848;2023-06-22T10:19:02;7.60;;;6.90;;
21424;SDS011;10873;51.132;16.848;2023-06-22T10:21:29;7.57;;;6.90;;
21424;SDS011;10873;51.132;16.848;2023-06-22T10:23:55;7.47;;;6.75;;
21424;SDS011;10873;51.132;16.848;2023-06-22T10:26:21;7.57;;;6.72;;
21424;SDS011;10873;51.132;16.848;2023-06-22T10:28:47;7.40;;;6.70;;
21424;SDS011;10873;51.132;16.848;2023-06-22T10:31:13;7.10;;;6.40;;
21424;SDS011;10873;51.132;16.848;2023-06-22T10:33:42;7.22;;;6.45;;
21424;SDS011;10873;51.132;16.848;2023-06-22T10:36:09;6.80;;;6.20;;
21424;SDS011;10873;51.132;16.848;2023-06-22T10:38:37;6.82;;;6.22;;
21424;SDS011;10873;51.132;16.848;2023-06-22T10:41:03;7.25;;;6.55;;
21424;SDS011;10873;51.132;16.848;2023-06-22T10:43:29;7.25;;;6.55;;
21424;SDS011;10873;51.132;16.848;2023-06-22T10:45:55;6.03;;;5.53;;
21424;SDS011;10873;51.132;16.848;2023-06-22T10:48:21;7.55;;;6.85;;
21424;SDS011;10873;51.132;16.848;2023-06-22T10:50:47;7.40;;;6.65;;
21424;SDS011;10873;51.132;16.848;2023-06-22T10:53:14;7.55;;;6.85;;
21424;SDS011;10873;51.132;16.848;2023-06-22T10:55:41;7.15;;;6.55;;
21424;SDS011;10873;51.132;16.848;2023-06-22T10:58:07;6.72;;;6.03;;
21424;SDS011;10873;51.132;16.848;2023-06-22T11:00:33;7.53;;;6.82;;
21424;SDS011;10873;51.132;16.848;2023-06-22T11:02:59;6.85;;;6.10;;
21424;SDS011;10873;51.132;16.848;2023-06-22T11:05:25;7.10;;;6.40;;
21424;SDS011;10873;51.132;16.848;2023-06-22T11:08:10;7.18;;;6.43;;
21424;SDS011;10873;51.132;16.848;2023-06-22T11:20:05;6.47;;;5.88;;
21424;SDS011;10873;51.132;16.848;2023-06-22T11:22:36;7.13;;;6.40;;
21424;SDS011;10873;51.132;16.848;2023-06-22T11:25:02;7.10;;;6.40;;
21424;SDS011;10873;51.132;16.848;2023-06-22T11:27:29;7.30;;;6.60;;
21424;SDS011;10873;51.132;16.848;2023-06-22T11:29:55;6.97;;;6.28;;
21424;SDS011;10873;51.132;16.848;2023-06-22T11:32:21;6.97;;;6.38;;
21424;SDS011;10873;51.132;16.848;2023-06-22T11:34:48;7.00;;;6.30;;
21424;SDS011;10873;51.132;16.848;2023-06-22T11:37:15;7.10;;;6.45;;
21424;SDS011;10873;51.132;16.848;2023-06-22T11:39:42;7.25;;;6.55;;
21424;SDS011;10873;51.132;16.848;2023-06-22T11:42:08;7.00;;;6.30;;
21424;SDS011;10873;51.132;16.848;2023-06-22T11:44:35;6.88;;;6.18;;
21424;SDS011;10873;51.132;16.848;2023-06-22T11:47:01;6.78;;;6.18;;
21424;SDS011;10873;51.132;16.848;2023-06-22T11:49:29;6.85;;;6.15;;
21424;SDS011;10873;51.132;16.848;2023-06-22T11:51:55;7.22;;;6.32;;
21424;SDS011;10873;51.132;16.848;2023-06-22T11:54:23;7.00;;;6.30;;
21424;SDS011;10873;51.132;16.848;2023-06-22T11:56:49;7.15;;;6.45;;
21424;SDS011;10873;51.132;16.848;2023-06-22T11:59:15;7.05;;;6.13;;
21424;SDS011;10873;51.132;16.848;2023-06-22T12:01:41;6.97;;;6.38;;
21424;SDS011;10873;51.132;16.848;2023-06-22T12:04:07;6.97;;;6.22;;
21424;SDS011;10873;51.132;16.848;2023-06-22T12:06:37;7.25;;;6.10;;
21424;SDS011;10873;51.132;16.848;2023-06-22T12:09:06;7.22;;;6.53;;
21424;SDS011;10873;51.132;16.848;2023-06-22T12:11:34;6.80;;;6.20;;
21424;SDS011;10873;51.132;16.848;2023-06-22T12:14:00;6.47;;;5.88;;
21424;SDS011;10873;51.132;16.848;2023-06-22T12:16:27;7.53;;;6.13;;
21424;SDS011;10873;51.132;16.848;2023-06-22T12:18:53;7.10;;;6.40;;
21424;SDS011;10873;51.132;16.848;2023-06-22T12:21:19;6.47;;;5.93;;
21424;SDS011;10873;51.132;16.848;2023-06-22T12:23:46;6.50;;;5.90;;
21424;SDS011;10873;51.132;16.848;2023-06-22T12:26:11;6.45;;;5.85;;
21424;SDS011;10873;51.132;16.848;2023-06-22T12:28:39;7.45;;;6.75;;
21424;SDS011;10873;51.132;16.848;2023-06-22T12:31:05;6.85;;;6.25;;
21424;SDS011;10873;51.132;16.848;2023-06-22T12:33:31;6.75;;;6.05;;
21424;SDS011;10873;51.132;16.848;2023-06-22T12:35:57;6.90;;;6.30;;
21424;SDS011;10873;51.132;16.848;2023-06-22T12:38:23;6.85;;;6.15;;
21424;SDS011;10873;51.132;16.848;2023-06-22T12:40:52;6.82;;;6.13;;
21424;SDS011;10873;51.132;16.848;2023-06-22T12:43:18;7.38;;;6.15;;
21424;SDS011;10873;51.132;16.848;2023-06-22T12:45:45;7.38;;;6.68;;
21424;SDS011;10873;51.132;16.848;2023-06-22T12:48:11;7.13;;;6.43;;
21424;SDS011;10873;51.132;16.848;2023-06-22T12:50:38;7.18;;;6.47;;
21424;SDS011;10873;51.132;16.848;2023-06-22T12:53:04;6.55;;;5.95;;
21424;SDS011;10873;51.132;16.848;2023-06-22T12:55:31;6.70;;;6.05;;
21424;SDS011;10873;51.132;16.848;2023-06-22T12:57:57;7.55;;;6.35;;
21424;SDS011;10873;51.132;16.848;2023-06-22T13:00:23;6.75;;;6.15;;
21424;SDS011;10873;51.132;16.848;2023-06-22T13:02:50;7.30;;;6.60;;
21424;SDS011;10873;51.132;16.848;2023-06-22T13:05:16;6.30;;;5.75;;
21424;SDS011;10873;51.132;16.848;2023-06-22T13:07:42;7.35;;;6.15;;
21424;SDS011;10873;51.132;16.848;2023-06-22T13:10:09;7.47;;;6.45;;
21424;SDS011;10873;51.132;16.848;2023-06-22T13:12:35;6.90;;;6.30;;
21424;SDS011;10873;51.132;16.848;2023-06-22T13:15:01;7.00;;;6.35;;
21424;SDS011;10873;51.132;16.848;2023-06-22T13:17:28;6.63;;;5.93;;
21424;SDS011;10873;51.132;16.848;2023-06-22T13:19:56;6.88;;;6.28;;
21424;SDS011;10873;51.132;16.848;2023-06-22T13:22:26;7.03;;;6.30;;
21424;SDS011;10873;51.132;16.848;2023-06-22T13:24:57;7.63;;;6.35;;
21424;SDS011;10873;51.132;16.848;2023-06-22T13:27:24;6.63;;;6.00;;
21424;SDS011;10873;51.132;16.848;2023-06-22T13:29:50;6.80;;;6.20;;
21424;SDS011;10873;51.132;16.848;2023-06-22T13:32:17;6.40;;;5.80;;
21424;SDS011;10873;51.132;16.848;2023-06-22T13:34:43;8.25;;;6.50;;
21424;SDS011;10873;51.132;16.848;2023-06-22T13:37:10;11.25;;;6.15;;
21424;SDS011;10873;51.132;16.848;2023-06-22T13:39:36;6.72;;;6.13;;
21424;SDS011;10873;51.132;16.848;2023-06-22T13:42:02;8.15;;;5.70;;
21424;SDS011;10873;51.132;16.848;2023-06-22T13:44:29;9.88;;;6.10;;
21424;SDS011;10873;51.132;16.848;2023-06-22T13:46:55;8.43;;;6.70;;
21424;SDS011;10873;51.132;16.848;2023-06-22T13:49:21;6.30;;;5.70;;
21424;SDS011;10873;51.132;16.848;2023-06-22T13:51:47;6.90;;;6.20;;
21424;SDS011;10873;51.132;16.848;2023-06-22T13:54:15;6.93;;;6.20;;
21424;SDS011;10873;51.132;16.848;2023-06-22T13:56:41;7.63;;;6.18;;
21424;SDS011;10873;51.132;16.848;2023-06-22T13:59:07;6.70;;;6.10;;
21424;SDS011;10873;51.132;16.848;2023-06-22T14:01:35;6.38;;;5.75;;
21424;SDS011;10873;51.132;16.848;2023-06-22T14:04:01;6.18;;;5.53;;
21424;SDS011;10873;51.132;16.848;2023-06-22T14:06:27;10.82;;;5.85;;
21424;SDS011;10873;51.132;16.848;2023-06-22T14:08:53;7.82;;;6.45;;
21424;SDS011;10873;51.132;16.848;2023-06-22T14:11:21;6.50;;;5.90;;
21424;SDS011;10873;51.132;16.848;2023-06-22T14:13:46;6.43;;;5.82;;
21424;SDS011;10873;51.132;16.848;2023-06-22T14:16:13;7.50;;;6.60;;
21424;SDS011;10873;51.132;16.848;2023-06-22T14:18:39;6.90;;;6.20;;
21424;SDS011;10873;51.132;16.848;2023-06-22T14:21:05;6.85;;;6.13;;
21424;SDS011;10873;51.132;16.848;2023-06-22T14:23:31;6.45;;;5.85;;
21424;SDS011;10873;51.132;16.848;2023-06-22T14:25:57;7.00;;;6.30;;
21424;SDS011;10873;51.132;16.848;2023-06-22T14:28:24;8.27;;;5.90;;
21424;SDS011;10873;51.132;16.848;2023-06-22T14:30:50;20.30;;;7.32;;
21424;SDS011;10873;51.132;16.848;2023-06-22T14:33:16;21.05;;;7.10;;
21424;SDS011;10873;51.132;16.848;2023-06-22T14:35:43;16.88;;;7.53;;
21424;SDS011;10873;51.132;16.848;2023-06-22T14:38:08;16.42;;;7.70;;